DW7229 Weather Reports


Display with metric or nautical units.
time (UTC)temp
F
wind
direction
speed
MPH
gust
MPH
rain 1hr
in
rain 24hr
in
rain mn
in
humidity
%
barometer
mb
20210225190526 43 304 7.0 12.0 0.00 0.00 0.00 31 1013.4
20210225190028 42 294 9.0 13.0 0.00 0.00 0.00 32 1013.4
20210225185523 42 253 9.0 15.0 0.00 0.00 0.00 31 1013.3
20210225185033 42 266 8.0 15.0 0.00 0.00 0.00 31 1013.4
20210225184544 43 261 8.0 16.0 0.00 0.00 0.00 29 1013.5
20210225184033 44 314 9.0 13.0 0.00 0.00 0.00 29 1013.5
20210225183530 44 353 7.0 13.0 0.00 0.00 0.00 29 1013.1
20210225183057 44 282 8.0 11.0 0.00 0.00 0.00 31 1013.1
20210225182918 44 241 8.0 12.0 0.00 0.00 0.00 31 1013.3
20210225182042 43 234 8.0 15.0 0.00 0.00 0.00 31 1013.3
20210225181557 43 266 7.0 11.0 0.00 0.00 0.00 31 1013.3
20210225181106 43 335 8.0 11.0 0.00 0.00 0.00 32 1013.3
20210225180520 42 291 8.0 14.0 0.00 0.00 0.00 31 1013.3
20210225180030 43 321 8.0 15.0 0.00 0.00 0.00 31 1013.5
20210225175523 43 328 9.0 16.0 0.00 0.00 0.00 31 1013.5
20210225175223 43 249 10.0 19.0 0.00 0.00 0.00 31 1013.5
20210225174526 43 320 6.0 10.0 0.00 0.00 0.00 31 1013.4
20210225174029 43 351 7.0 13.0 0.00 0.00 0.00 32 1013.4
20210225173534 0 315 8.0 8.0 0.00 0.00 0.00 1013.6
20210225173027 42 244 7.0 12.0 0.00 0.00 0.00 33 1013.6
20210225172549 42 357 8.0 13.0 0.00 0.00 0.00 33 1013.6
20210225172024 42 291 9.0 15.0 0.00 0.00 0.00 34 1013.5
20210225171523 42 183 6.0 8.0 0.00 0.00 0.00 35 1013.6
20210225171037 42 265 8.0 18.0 0.00 0.00 0.00 35 1013.6
20210225170519 41 295 7.0 13.0 0.00 0.00 0.00 36 1013.6
20210225170028 40 312 7.0 8.0 0.00 0.00 0.00 37 1013.8
20210225165524 40 272 6.0 8.0 0.00 0.00 0.00 37 1013.9
20210225165157 40 256 7.0 10.0 0.00 0.00 0.00 36 1013.8
20210225164526 40 281 8.0 14.0 0.00 1.27 0.00 36 1013.6
20210225164041 40 241 9.0 15.0 0.00 1.27 0.00 37 1013.6
20210225163525 41 221 9.0 16.0 0.00 1.27 0.00 36 1013.5
20210225163042 42 274 7.0 12.0 0.00 1.27 0.00 36 1013.5
20210225162652 42 294 7.0 10.0 0.00 1.27 0.00 36 1013.5
20210225162025 41 306 6.0 9.0 0.00 1.27 0.00 37 1013.4
20210225161530 41 289 7.0 13.0 0.00 1.27 0.00 36 1013.4
20210225161023 41 66 8.0 11.0 0.00 1.27 0.00 37 1013.5
20210225160521 41 307 5.0 9.0 0.00 1.27 0.00 38 1013.5
20210225160030 40 323 7.0 10.0 0.00 1.27 0.00 39 1013.5
20210225155526 40 257 8.0 11.0 0.00 1.27 0.00 39 1013.5
20210225155157 40 291 6.0 12.0 0.00 1.27 0.00 39 1013.5
20210225154524 39 208 4.0 6.0 0.00 1.27 0.00 40 1013.3
20210225154038 39 224 7.0 13.0 0.00 1.27 0.00 40 1013.3
20210225153527 39 271 7.0 11.0 0.00 1.27 0.00 41 1013.5
20210225153024 39 324 7.0 11.0 0.00 1.27 0.00 41 1013.5
20210225152656 39 244 6.0 10.0 0.00 1.27 0.00 42 1013.4
20210225152030 38 308 5.0 7.0 0.00 1.27 0.00 43 1013.3
20210225151530 39 320 6.0 11.0 0.00 1.27 0.00 42 1013.4
20210225151031 39 309 4.0 6.0 0.00 1.27 0.00 42 1013.4
20210225150523 39 246 5.0 10.0 0.00 1.27 0.00 41 1013.4
20210225150039 38 300 7.0 14.0 0.00 1.27 0.00 42 1013.2
20210225145529 38 313 8.0 10.0 0.00 1.27 0.00 42 1013.1
20210225145030 38 296 7.0 10.0 0.00 1.27 0.00 43 1013.1
20210225144542 37 332 8.0 12.0 0.00 1.27 0.00 43 1013.1
20210225144032 37 333 7.0 10.0 0.00 1.27 0.00 43 1013.1
20210225143525 37 331 6.0 12.0 0.00 1.27 0.00 44 1012.8
20210225143030 37 322 7.0 13.0 0.00 1.27 0.00 46 1012.8
20210225142710 37 290 6.0 12.0 0.00 1.27 0.00 47 1012.7
20210225142026 37 332 6.0 8.0 0.00 1.27 0.00 48 1012.6
20210225141525 37 317 7.0 12.0 0.00 1.27 0.00 48 1012.6
20210225141036 37 277 8.0 14.0 0.00 1.27 0.00 48 1012.5
20210225140525 37 266 8.0 12.0 0.00 1.27 0.00 48 1012.5
20210225140034 37 294 7.0 11.0 0.00 1.27 0.00 49 1012.2
20210225135522 37 237 9.0 15.0 0.00 1.27 0.00 49 1012.1
20210225135022 37 283 7.0 13.0 0.00 1.27 0.00 50 1012.0
20210225134523 37 271 9.0 19.0 0.00 1.27 0.00 50 1011.7
20210225134037 37 260 8.0 12.0 0.00 1.27 0.00 50 1011.7
20210225133535 37 286 8.0 12.0 0.00 1.27 0.00 50 1011.5
20210225133118 37 263 8.0 15.0 0.00 1.27 0.00 50 1011.5
20210225132756 37 263 8.0 16.0 0.00 1.27 0.00 50 1011.3
20210225132026 37 345 9.0 13.0 0.00 1.27 0.00 50 1011.1
20210225131559 37 256 6.0 12.0 0.00 1.27 0.00 50 1010.9
20210225131039 37 283 7.0 13.0 0.00 1.27 0.00 49 1010.6
20210225130539 37 295 9.0 13.0 0.00 1.27 0.00 49 1010.6
20210225130030 37 45 10.0 11.0 0.00 1.27 0.00 50 1010.4
20210225125522 37 5 9.0 16.0 0.00 1.27 0.00 50 1010.3
20210225125030 37 54 7.0 12.0 0.00 1.27 0.00 51 1010.2
20210225124533 37 264 9.0 16.0 0.00 1.27 0.00 50 1009.9
20210225124026 37 343 7.0 14.0 0.00 1.27 0.00 50 1009.9
20210225123526 37 274 10.0 17.0 0.00 1.27 0.00 50 1009.8
20210225123033 38 291 9.0 23.0 0.00 1.27 0.00 50 1009.7
20210225122648 38 297 10.0 13.0 0.00 1.27 0.00 50 1009.5
20210225122022 38 294 7.0 11.0 0.00 1.27 0.00 51 1009.3
20210225121540 38 299 7.0 10.0 0.00 1.27 0.00 53 1009.2
20210225121029 38 344 7.0 12.0 0.00 1.27 0.00 53 1008.8
20210225120517 38 105 9.0 17.0 0.00 1.27 0.00 55 1008.8
20210225120040 39 316 7.0 11.0 0.00 1.27 0.00 56 1008.3
20210225115550 39 284 4.0 7.0 0.00 1.27 0.00 57 1008.1
20210225115132 39 302 6.0 7.0 0.00 1.27 0.00 57 1008.0
20210225114611 39 2 5.0 8.0 0.00 1.27 0.00 58 1007.7
20210225114024 39 270 5.0 10.0 0.00 1.27 0.00 59 1007.7
20210225113526 40 14 3.0 7.0 0.00 1.27 0.00 59 1007.2
20210225113103 40 285 3.0 5.0 0.00 1.27 0.00 58 1007.2
20210225112705 40 313 3.0 6.0 0.00 1.27 0.00 57 1007.1
20210225112022 41 279 4.0 6.0 0.00 1.27 0.00 57 1007.0
20210225111533 41 300 6.0 9.0 0.00 1.27 0.00 56 1006.9
20210225111027 41 341 7.0 12.0 0.00 1.27 0.00 56 1006.7
20210225110529 41 264 7.0 11.0 0.00 1.27 0.00 55 1006.7
20210225110037 41 273 7.0 12.0 0.00 1.27 0.00 54 1006.4
20210225105526 42 244 7.0 16.0 0.00 1.27 0.00 54 1006.3
20210225105027 42 232 8.0 22.0 0.00 1.27 0.00 52 1006.0
20210225104527 42 226 7.0 12.0 0.00 1.27 0.00 52 1005.6
20210225104026 43 264 9.0 14.0 0.00 1.27 0.00 52 1005.6
20210225103523 43 308 11.0 15.0 0.00 1.27 0.00 51 1004.9
20210225103130 43 289 12.0 16.0 0.00 1.27 0.00 51 1004.9
20210225102732 43 285 8.0 17.0 0.00 1.27 0.00 52 1004.7
20210225102023 43 218 10.0 19.0 0.00 1.27 0.00 52 1004.5
20210225101533 43 284 7.0 12.0 0.00 1.27 0.00 51 1004.4
20210225101033 43 8.0 8.0 0.00 1.27 0.00 51 1004.0
20210225100533 43 261 6.0 11.0 0.00 1.27 0.00 51 1004.0
20210225100030 44 274 8.0 15.0 0.00 1.27 0.00 50 1003.7
20210225095522 44 286 11.0 19.0 0.00 1.27 0.00 50 1003.7
20210225095210 44 258 8.0 12.0 0.00 1.27 0.00 50 1003.6
20210225094556 44 233 8.0 17.0 0.00 1.27 0.00 50 1003.4
20210225094024 44 282 8.0 17.0 0.00 1.27 0.00 49 1003.3
20210225093530 44 273 8.0 13.0 0.00 1.27 0.00 49 1003.1
20210225093033 44 260 11.0 13.0 0.00 1.27 0.00 50 1003.1
20210225092713 44 231 9.0 11.0 0.00 1.27 0.00 51 1002.8
20210225092024 44 303 9.0 12.0 0.00 1.27 0.00 51 1002.6
20210225091524 44 214 9.0 16.0 0.00 1.27 0.00 51 1002.6
20210225091041 44 230 8.0 12.0 0.00 1.27 0.00 51 1002.5
20210225090520 44 259 7.0 14.0 0.00 1.27 0.00 51 1002.5
20210225090033 45 263 10.0 16.0 0.00 1.27 0.00 51 1001.9
20210225085522 45 219 7.0 10.0 0.00 1.27 0.00 51 1001.8
20210225085032 45 233 7.0 11.0 0.00 1.27 0.00 51 1001.7
20210225084525 45 241 8.0 13.0 0.00 1.27 0.00 51 1001.5
20210225084038 45 245 7.0 11.0 0.00 1.27 0.00 51 1001.5
20210225083527 45 259 10.0 16.0 0.00 1.27 0.00 51 1001.3
20210225083115 45 250 10.0 18.0 0.00 1.27 0.00 51 1001.3
20210225082826 45 240 7.0 12.0 0.00 1.27 0.00 51 1001.2
20210225082032 45 229 11.0 19.0 0.00 1.27 0.00 52 1001.2
20210225081535 46 280 7.0 17.0 0.00 1.27 0.00 52 1001.1
20210225081037 45 309 8.0 13.0 0.00 1.27 0.00 53 1001.1
20210225080533 45 244 7.0 12.0 0.00 1.27 0.00 54 1001.1
20210225080031 46 239 6.0 10.0 0.00 1.27 0.00 55 1001.1
20210225075523 46 230 10.0 15.0 0.00 1.27 0.00 55 1001.1
20210225075036 45 238 8.0 15.0 0.00 1.27 0.00 58 1000.9
20210225074525 45 232 6.0 15.0 0.00 1.27 0.00 60 1000.8
20210225074038 45 215 6.0 9.0 0.00 1.27 0.00 60 1000.8
20210225073549 45 219 5.0 13.0 0.00 1.27 0.00 60 1000.6
20210225073122 45 229 5.0 7.0 0.00 1.27 0.00 60 1000.6
20210225072714 45 234 4.0 10.0 0.00 1.27 0.00 60 1000.6
20210225072030 45 209 5.0 10.0 0.00 1.27 0.00 60 1000.6
20210225071533 45 236 6.0 11.0 0.00 1.27 0.00 60 1000.6
20210225071022 45 250 4.0 8.0 0.00 1.27 0.00 60 1000.7
20210225070520 45 212 6.0 12.0 0.00 1.27 0.00 60 1000.7
20210225070026 45 223 5.0 8.0 0.00 1.27 0.00 60 1000.8
20210225065517 45 243 4.0 9.0 0.00 1.27 0.00 60 1000.9
20210225065033 46 257 7.0 11.0 0.00 1.27 0.00 60 1000.9
20210225064535 46 226 4.0 8.0 0.00 1.27 0.00 60 1001.0
20210225064040 46 232 6.0 13.0 0.00 1.27 0.00 60 1001.0
20210225063541 46 254 5.0 9.0 0.00 1.27 0.00 60 1000.8
20210225063111 46 274 5.0 9.0 0.00 1.27 0.00 60 1000.8
20210225062737 46 258 6.0 13.0 0.00 1.27 0.00 60 1000.8
20210225062034 46 185 4.0 10.0 0.00 1.27 0.00 60 1000.8
20210225061525 46 244 6.0 11.0 0.00 1.27 0.00 60 1000.7
20210225061031 46 226 7.0 11.0 0.00 1.27 0.00 60 1000.5
20210225060530 46 276 6.0 8.0 0.00 1.27 0.00 60 1000.5
20210225060047 46 253 5.0 7.0 0.00 1.27 0.00 61 1000.5
20210225055527 46 213 6.0 11.0 0.00 1.27 0.00 61 1000.6
20210225055322 45 227 7.0 13.0 0.00 1.27 0.00 62 1000.6
20210225054528 44 237 4.0 9.0 0.00 1.27 0.00 64 1000.7
20210225054022 44 200 4.0 7.0 0.00 1.27 0.00 64 1000.7
20210225053530 43 205 4.0 11.0 0.00 1.27 0.00 64 1000.8
20210225053041 43 188 2.0 5.0 0.00 1.27 0.00 63 1000.8
20210225052643 43 206 3.0 4.0 0.00 1.27 0.00 63 1000.8
20210225052025 43 195 3.0 7.0 0.00 1.27 0.00 63 1000.9
20210225051540 43 195 1.0 3.0 0.00 1.27 0.00 63 1000.9
20210225051046 43 216 3.0 5.0 0.00 1.27 0.00 62 1000.9
20210225050527 43 244 2.0 4.0 0.00 1.27 0.00 62 1000.9
20210225050059 43 201 4.0 6.0 0.00 1.27 0.00 62 1000.9
20210225045539 43 195 2.0 4.0 0.00 1.27 1.27 62 1000.9
20210225045030 43 198 3.0 5.0 0.00 1.27 1.27 62 1001.1
20210225044532 43 205 3.0 7.0 0.00 1.27 1.27 61 1001.4
20210225044021 43 169 4.0 8.0 0.00 1.27 1.27 61 1001.4
20210225043530 43 197 3.0 5.0 0.00 1.27 1.27 61 1001.8
20210225043031 43 194 4.0 8.0 0.00 1.27 1.27 60 1001.8
20210225042641 43 185 4.0 5.0 0.00 1.27 1.27 60 1001.8
20210225042031 43 199 3.0 6.0 0.00 1.27 1.27 60 1001.8
20210225041530 43 172 3.0 6.0 0.00 1.27 1.27 60 1001.8
20210225041033 43 222 4.0 8.0 0.00 1.27 1.27 59 1002.1
20210225040534 43 195 3.0 4.0 0.00 1.27 1.27 59 1002.1
20210225040209 43 232 5.0 7.0 0.00 1.27 1.27 59 1002.2
20210225035526 43 214 5.0 8.0 0.00 1.27 1.27 59 1002.2
20210225035033 42 206 4.0 7.0 0.00 1.27 1.27 59 1002.3
20210225034525 43 174 3.0 6.0 0.00 1.27 1.27 58 1002.4
20210225034029 43 269 5.0 9.0 0.00 1.27 1.27 58 1002.4
20210225033526 43 244 4.0 7.0 0.00 1.27 1.27 57 1002.5
20210225033245 43 225 5.0 9.0 0.00 1.27 1.27 57 1002.5
20210225032710 43 194 4.0 7.0 0.00 1.27 1.27 57 1002.6
20210225032039 43 235 5.0 8.0 0.00 1.27 1.27 57 1002.7
20210225031528 43 231 5.0 10.0 0.00 1.27 1.27 57 1002.7
20210225031029 42 213 4.0 8.0 0.00 1.27 1.27 56 1002.9
20210225030525 42 204 5.0 9.0 0.00 1.27 1.27 56 1002.9
20210225030033 43 249 6.0 11.0 0.00 1.27 1.27 56 1003.2
20210225025524 42 212 5.0 6.0 0.00 1.27 1.27 56 1003.3
20210225025027 42 216 4.0 6.0 0.00 1.27 1.27 56 1003.4
20210225024528 42 188 5.0 8.0 0.00 1.27 1.27 56 1003.7
20210225024025 42 233 5.0 7.0 0.00 1.27 1.27 55 1003.7
20210225023532 42 224 5.0 9.0 0.00 1.27 1.27 55 1003.9
20210225023034 42 185 5.0 8.0 0.00 1.27 1.27 55 1003.9
20210225022700 42 216 6.0 9.0 0.00 1.27 1.27 55 1003.9
20210225022026 42 218 6.0 8.0 0.00 1.27 1.27 55 1004.0
20210225021523 42 206 4.0 8.0 0.00 1.27 1.27 55 1004.0
20210225021037 42 201 5.0 9.0 0.00 1.27 1.27 55 1004.2
20210225020524 43 221 5.0 11.0 0.00 1.27 1.27 55 1004.2
20210225020036 43 228 4.0 10.0 0.00 1.27 1.27 55 1004.3
20210225015535 43 194 5.0 9.0 0.00 1.27 1.27 55 1004.3
20210225015040 43 230 4.0 9.0 0.00 1.27 1.27 54 1004.4
20210225014528 43 221 5.0 9.0 0.00 1.27 1.27 54 1004.5
20210225014033 43 226 4.0 7.0 0.00 1.27 1.27 54 1004.5
20210225013531 43 210 5.0 10.0 0.00 1.27 1.27 54 1004.6
20210225013210 43 202 5.0 7.0 0.00 1.27 1.27 54 1004.6
20210225012812 43 194 5.0 8.0 0.00 1.27 1.27 54 1004.7
20210225012030 44 169 4.0 6.0 0.00 1.27 1.27 53 1004.8
20210225011528 44 187 6.0 9.0 0.00 1.27 1.27 53 1004.9
20210225011037 44 194 4.0 8.0 0.00 1.27 1.27 53 1005.1
20210225010533 44 208 6.0 9.0 0.00 1.27 1.27 53 1005.1
20210225010049 44 226 6.0 11.0 0.00 1.27 1.27 53 1005.0
20210225005529 44 212 5.0 8.0 0.00 1.27 1.27 53 1005.0
20210225005036 44 233 5.0 8.0 0.00 1.27 1.27 53 1005.3
20210225004533 44 229 4.0 9.0 0.00 1.27 1.27 53 1005.7
20210225004028 44 210 6.0 11.0 0.00 1.27 1.27 52 1005.7
20210225003532 44 250 4.0 7.0 0.00 1.27 1.27 52 1004.9
20210225003202 43 212 4.0 8.0 0.00 1.27 1.27 52 1004.9
20210225002858 44 216 4.0 10.0 0.00 1.27 1.27 52 1005.4
20210225002049 43 162 4.0 6.0 0.00 1.27 1.27 52 1005.7
20210225001533 0 270 5.0 5.0 0.00 1.27 1.27 1005.7
20210225001027 44 225 6.0 10.0 0.00 1.27 1.27 52 1005.5
20210225000527 43 201 5.0 7.0 0.00 1.27 1.27 53 1005.5
20210225000055 43 170 3.0 5.0 0.00 1.27 1.27 53 1005.6
20210224235536 43 210 4.0 9.0 0.00 1.27 1.27 53 1005.6
20210224235341 42 205 3.0 6.0 0.00 1.27 1.27 54 1005.6
20210224234534 42 168 3.0 7.0 0.00 1.27 1.27 54 1005.5
20210224234026 41 146 2.0 4.0 0.00 1.27 1.27 56 1005.5
20210224233537 41 134 1.0 3.0 0.00 1.27 1.27 55 1005.9
20210224233036 41 151 1.0 2.0 0.00 1.27 1.27 55 1005.9
20210224232642 42 147 1.0 3.0 0.00 1.27 1.27 54 1006.2
20210224232026 42 156 1.0 3.0 0.00 1.27 1.27 54 1006.3
20210224231531 42 140 1.0 3.0 0.00 1.27 1.27 53 1006.3
20210224231033 43 172 0.0 2.0 0.00 1.27 1.27 52 1006.8
20210224230528 44 162 1.0 2.0 0.00 1.27 1.27 50 1006.8
20210224230033 44 0.0 0.0 0.00 1.27 1.27 50 1006.8
20210224225529 44 168 1.0 4.0 0.00 1.27 1.27 50 1006.8
20210224225027 45 173 1.0 3.0 0.00 1.27 1.27 48 1006.8
20210224224533 45 199 2.0 6.0 0.00 1.27 1.27 47 1007.0
20210224224026 45 195 3.0 4.0 0.00 1.27 1.27 47 1007.0
20210224223535 45 190 4.0 9.0 0.00 1.27 1.27 47 1007.1
20210224223047 46 141 1.0 4.0 0.00 1.27 1.27 46 1007.1
20210224222745 46 209 3.0 6.0 0.00 1.27 1.27 46 1007.4
20210224222033 46 180 5.0 8.0 0.00 1.27 1.27 45 1007.6
20210224221527 47 189 2.0 4.0 0.00 1.27 1.27 44 1007.6
20210224221037 47 202 3.0 5.0 0.00 1.27 1.27 43 1007.6
20210224220523 48 203 3.0 5.0 0.00 1.27 1.27 43 1007.6
20210224220045 48 199 3.0 6.0 0.00 1.27 1.27 42 1007.9
20210224215528 48 193 2.0 6.0 0.00 1.27 1.27 42 1007.9
20210224215254 48 182 3.0 5.0 0.00 1.27 1.27 43 1008.0
20210224214532 49 241 3.0 6.0 0.00 1.27 1.27 42 1008.0
20210224214029 49 165 3.0 5.0 0.00 1.27 1.27 42 1008.0
20210224213532 49 217 2.0 4.0 0.00 1.27 1.27 41 1008.4
20210224213036 49 173 2.0 5.0 0.00 1.27 1.27 41 1008.4
20210224212640 49 185 3.0 8.0 0.00 1.27 1.27 41 1008.4
20210224212030 50 186 5.0 10.0 0.00 1.27 1.27 40 1008.4
20210224211530 50 203 5.0 9.0 0.00 1.27 1.27 39 1008.5
20210224211027 51 194 5.0 8.0 0.00 1.27 1.27 37 1008.6
20210224210541 51 235 5.0 8.0 0.00 1.27 1.27 36 1008.6
20210224210022 51 220 3.0 5.0 0.00 1.27 1.27 37 1008.8
20210224205519 51 226 2.0 7.0 0.00 1.27 1.27 37 1008.8
20210224205114 51 225 1.0 5.0 0.00 1.27 1.27 36 1008.9
20210224204522 50 191 4.0 8.0 0.00 1.27 1.27 35 1009.0
20210224204021 50 184 3.0 5.0 0.00 1.27 1.27 35 1009.0
20210224203533 50 216 3.0 4.0 0.00 1.27 1.27 35 1009.3
20210224203029 50 216 2.0 5.0 0.00 1.27 1.27 35 1009.3
20210224202607 50 206 3.0 6.0 0.00 1.27 1.27 35 1009.4
20210224202028 50 180 2.0 5.0 0.00 1.27 1.27 35 1009.4
20210224201532 50 220 3.0 6.0 0.00 1.27 1.27 36 1009.5
20210224201031 50 196 3.0 5.0 0.00 1.27 1.27 36 1009.6
20210224200525 50 204 5.0 8.0 0.00 1.27 1.27 35 1009.6
20210224200030 50 228 3.0 5.0 0.00 1.27 1.27 35 1009.6
20210224195531 50 185 3.0 5.0 0.00 1.27 1.27 35 1009.6
20210224195324 51 222 4.0 6.0 0.00 1.27 1.27 35 1009.6
20210224194529 50 183 3.0 5.0 0.00 1.27 1.27 36 1009.7
20210224194023 50 216 2.0 5.0 0.00 1.27 1.27 36 1009.7
20210224193546 50 244 3.0 5.0 0.00 1.27 1.27 36 1010.1
20210224193036 49 243 1.0 4.0 0.00 1.27 1.27 37 1010.1
20210224192608 49 194 2.0 5.0 0.00 1.27 1.27 37 1010.4
20210224192027 49 226 5.0 8.0 0.00 1.27 1.27 36 1010.5
20210224191536 50 231 5.0 7.0 0.00 1.27 1.27 36 1010.6
20210224191032 50 247 5.0 10.0 0.00 1.27 1.27 36 1010.8